Time;durP1;ratioP1;P1;durP2;ratioP2;P2;SDS_P1;SDS_P2;PMS_P1;PMS_P2;Temp;Humidity;BMP_temperature;BMP_pressure;BME280_temperature;BME280_humidity;BME280_pressure;Samples;Min_cycle;Max_cycle;Signal;HPM_P1;HPM_P2
2022/08/29 00:00:43;;;;;;;4.60;2.10;;;;;;;18.01;100.00;99375.84;5089541;28;20199;-80
2022/08/29 00:03:14;;;;;;;5.70;1.80;;;;;;;17.93;100.00;99373.84;5092294;28;20196;-79
2022/08/29 00:05:45;;;;;;;6.43;2.07;;;;;;;17.91;100.00;99380.34;5070353;28;20196;-79
2022/08/29 00:08:17;;;;;;;5.43;2.03;;;;;;;17.88;100.00;99373.44;5071540;28;20204;-79
2022/08/29 00:10:46;;;;;;;4.53;2.30;;;;;;;17.78;100.00;99377.09;5068704;28;20262;-79
2022/08/29 00:13:18;;;;;;;6.20;2.37;;;;;;;17.74;100.00;99368.47;5073499;28;20279;-79
2022/08/29 00:15:47;;;;;;;8.80;2.50;;;;;;;17.72;100.00;99373.97;5069691;28;20196;-79
2022/08/29 00:18:20;;;;;;;5.87;2.50;;;;;;;17.79;100.00;99373.41;5070533;28;20354;-80
2022/08/29 00:20:49;;;;;;;8.57;2.83;;;;;;;17.78;100.00;99369.06;5070665;28;20353;-80
2022/08/29 00:23:19;;;;;;;4.97;2.40;;;;;;;17.78;100.00;99374.41;5068121;28;20199;-80
2022/08/29 00:25:49;;;;;;;5.13;1.90;;;;;;;17.73;100.00;99370.31;5088547;28;20203;-79
2022/08/29 00:28:19;;;;;;;7.80;2.60;;;;;;;17.79;100.00;99365.38;5093853;28;20642;-79
2022/08/29 00:30:48;;;;;;;3.87;2.00;;;;;;;17.65;100.00;99370.09;5091591;28;20275;-79
2022/08/29 00:33:17;;;;;;;7.40;2.43;;;;;;;17.64;100.00;99373.78;5095072;28;20191;-79
2022/08/29 00:35:47;;;;;;;7.47;2.30;;;;;;;17.40;100.00;99370.63;5092610;28;20271;-79
2022/08/29 00:38:17;;;;;;;5.93;2.20;;;;;;;17.30;100.00;99378.63;5090867;28;20678;-79
2022/08/29 00:40:49;;;;;;;6.13;2.53;;;;;;;17.35;100.00;99373.69;5091350;28;20192;-79
2022/08/29 00:43:23;;;;;;;4.60;2.20;;;;;;;17.17;100.00;99383.34;5095170;28;20218;-79
2022/08/29 00:45:59;;;;;;;5.40;2.07;;;;;;;17.28;100.00;99380.59;5089766;28;20206;-79
2022/08/29 00:48:28;;;;;;;6.93;2.60;;;;;;;17.06;100.00;99383.44;5077087;28;20192;-79
2022/08/29 00:51:01;;;;;;;5.00;2.07;;;;;;;16.91;100.00;99390.13;5068166;28;20196;-79
2022/08/29 00:53:36;;;;;;;5.03;2.10;;;;;;;17.15;100.00;99385.31;5073407;28;20665;-79
2022/08/29 00:56:06;;;;;;;8.60;2.47;;;;;;;16.94;100.00;99385.34;5072807;28;20187;-79
2022/08/29 00:58:44;;;;;;;5.73;2.47;;;;;;;16.95;100.00;99389.72;5076777;28;20231;-79
2022/08/29 01:01:14;;;;;;;7.73;2.20;;;;;;;16.88;100.00;99385.88;5071889;28;20371;-79
2022/08/29 01:03:43;;;;;;;4.80;2.27;;;;;;;16.92;100.00;99379.28;5072934;28;20193;-79
2022/08/29 01:06:13;;;;;;;4.47;2.00;;;;;;;17.16;100.00;99395.03;5068984;28;20235;-79
2022/08/29 01:08:43;;;;;;;6.03;2.23;;;;;;;17.03;100.00;99389.91;5068754;28;20275;-80
2022/08/29 01:14:04;;;;;;;4.53;1.87;;;;;;;16.82;100.00;99387.28;5075350;28;20267;-80
2022/08/29 01:16:33;;;;;;;7.57;2.53;;;;;;;16.93;100.00;99388.16;5074106;28;20207;-80
2022/08/29 01:19:07;;;;;;;5.60;2.17;;;;;;;16.88;100.00;99388.56;5072910;28;20244;-80
2022/08/29 01:21:41;;;;;;;4.13;2.07;;;;;;;16.95;100.00;99392.41;5071685;28;20196;-80
2022/08/29 01:24:15;;;;;;;5.53;2.10;;;;;;;16.93;100.00;99388.16;5074163;28;20203;-80
2022/08/29 01:26:47;;;;;;;5.10;2.37;;;;;;;16.98;100.00;99384.09;5073791;28;20203;-79
2022/08/29 01:29:17;;;;;;;4.67;2.10;;;;;;;16.97;100.00;99376.22;5035091;28;20216;-80
2022/08/29 01:31:48;;;;;;;7.30;2.37;;;;;;;16.85;100.00;99375.44;5048081;28;20640;-80
2022/08/29 01:34:26;;;;;;;7.00;1.90;;;;;;;16.75;100.00;99377.22;5050246;28;20207;-80
2022/08/29 01:36:59;;;;;;;5.33;1.90;;;;;;;16.86;100.00;99386.00;5046300;28;20200;-80
2022/08/29 01:39:29;;;;;;;4.27;2.43;;;;;;;16.63;100.00;99378.25;5044936;28;20303;-80
2022/08/29 01:42:02;;;;;;;7.40;2.30;;;;;;;16.49;100.00;99382.94;4987426;28;20210;-79
2022/08/29 01:44:31;;;;;;;4.53;2.10;;;;;;;16.51;100.00;99388.19;4990110;28;20202;-79
2022/08/29 01:47:01;;;;;;;6.50;2.30;;;;;;;16.24;100.00;99400.19;4991706;28;20215;-79
2022/08/29 01:49:33;;;;;;;7.03;2.40;;;;;;;16.32;100.00;99386.19;5007578;28;20249;-79
2022/08/29 01:52:06;;;;;;;6.43;2.50;;;;;;;16.22;100.00;99394.16;4977944;28;20225;-79
2022/08/29 01:54:35;;;;;;;7.43;2.37;;;;;;;15.98;100.00;99386.31;5007302;28;20277;-79
2022/08/29 01:57:05;;;;;;;5.07;2.13;;;;;;;16.00;100.00;99391.53;5011934;28;20277;-79
2022/08/29 01:59:40;;;;;;;3.03;2.00;;;;;;;16.07;100.00;99390.06;5007907;28;20300;-79
2022/08/29 02:02:15;;;;;;;5.47;2.23;;;;;;;15.47;100.00;99394.06;5004283;28;20203;-80
2022/08/29 02:04:48;;;;;;;6.53;2.20;;;;;;;15.71;100.00;99393.94;5006659;28;20213;-79
2022/08/29 02:07:18;;;;;;;6.80;2.47;;;;;;;15.71;100.00;99391.25;5056259;28;20220;-80
2022/08/29 02:09:47;;;;;;;8.40;2.37;;;;;;;15.93;100.00;99390.38;5076031;28;20204;-80
2022/08/29 02:12:19;;;;;;;7.33;2.20;;;;;;;15.91;100.00;99395.81;5072940;28;20274;-80
2022/08/29 02:14:49;;;;;;;5.97;2.47;;;;;;;15.91;100.00;99398.50;5073331;28;20701;-80
2022/08/29 02:17:19;;;;;;;4.53;2.00;;;;;;;15.79;100.00;99395.97;5070679;28;20188;-80
2022/08/29 02:19:49;;;;;;;5.73;2.23;;;;;;;15.72;100.00;99390.28;5072941;28;20255;-79
2022/08/29 02:22:17;;;;;;;4.47;1.93;;;;;;;15.60;100.00;99393.91;5068083;28;20283;-79
2022/08/29 02:24:48;;;;;;;4.83;2.20;;;;;;;15.66;100.00;99398.81;5073923;28;20192;-79
2022/08/29 02:27:18;;;;;;;5.00;2.40;;;;;;;15.61;100.00;99393.81;5065936;28;20200;-79
2022/08/29 02:29:47;;;;;;;4.17;2.30;;;;;;;15.52;100.00;99401.69;5072441;28;20197;-79
2022/08/29 02:32:15;;;;;;;4.83;2.43;;;;;;;15.38;100.00;99405.50;5068131;28;20207;-79
2022/08/29 02:34:45;;;;;;;4.83;2.73;;;;;;;15.48;100.00;99402.94;5069760;28;20215;-79
2022/08/29 02:37:16;;;;;;;3.27;2.30;;;;;;;15.53;100.00;99401.56;5073023;28;20199;-79
2022/08/29 02:39:45;;;;;;;6.03;2.60;;;;;;;15.60;100.00;99404.59;5073016;28;20705;-79
2022/08/29 02:42:13;;;;;;;5.70;2.50;;;;;;;15.51;100.00;99405.34;5071351;28;20207;-79
2022/08/29 02:44:43;;;;;;;4.70;2.27;;;;;;;15.45;100.00;99410.22;5070226;28;20189;-79
2022/08/29 02:47:11;;;;;;;7.27;2.50;;;;;;;15.51;100.00;99413.34;5086413;28;20238;-79
2022/08/29 02:49:39;;;;;;;6.17;2.30;;;;;;;15.53;100.00;99412.25;5102541;28;20206;-79
2022/08/29 02:52:09;;;;;;;6.60;2.80;;;;;;;15.59;100.00;99409.09;5102168;28;20191;-80
2022/08/29 02:54:37;;;;;;;6.37;2.93;;;;;;;15.55;100.00;99410.34;5109365;28;20198;-80
2022/08/29 02:57:06;;;;;;;6.83;2.80;;;;;;;15.59;100.00;99414.44;5110694;28;20195;-79
2022/08/29 02:59:35;;;;;;;5.43;2.70;;;;;;;15.58;100.00;99403.88;5108454;28;20222;-79
2022/08/29 03:02:06;;;;;;;5.83;2.73;;;;;;;15.55;100.00;99406.81;5111377;28;20207;-79
2022/08/29 03:04:34;;;;;;;4.70;2.33;;;;;;;15.55;100.00;99405.00;5106912;28;20734;-79
2022/08/29 03:07:03;;;;;;;4.00;2.60;;;;;;;15.48;100.00;99403.78;5101441;28;20210;-80
2022/08/29 03:09:32;;;;;;;6.37;2.47;;;;;;;15.56;100.00;99404.00;5104023;28;20206;-79
2022/08/29 03:12:00;;;;;;;4.40;2.70;;;;;;;15.51;100.00;99402.69;5102547;28;20206;-79
2022/08/29 03:14:28;;;;;;;8.17;3.07;;;;;;;15.52;100.00;99407.03;5104816;28;20191;-80
2022/08/29 03:16:59;;;;;;;7.80;3.00;;;;;;;15.36;100.00;99402.09;5111457;28;20203;-79
2022/08/29 03:19:31;;;;;;;6.03;3.00;;;;;;;15.37;100.00;99409.97;5105623;28;20696;-79
2022/08/29 03:22:04;;;;;;;6.73;2.90;;;;;;;15.09;100.00;99408.63;5106631;28;20262;-79
2022/08/29 03:24:35;;;;;;;5.67;2.87;;;;;;;14.84;100.00;99412.38;5102551;28;20270;-79
2022/08/29 03:27:04;;;;;;;6.67;3.03;;;;;;;14.95;100.00;99410.69;5106264;28;20210;-79
2022/08/29 03:29:32;;;;;;;5.70;2.77;;;;;;;14.96;100.00;99409.72;5104577;28;20194;-79
2022/08/29 03:32:03;;;;;;;9.30;3.10;;;;;;;14.88;100.00;99410.31;5103093;28;20224;-79
2022/08/29 03:34:33;;;;;;;6.57;3.00;;;;;;;14.92;100.00;99413.59;5107836;28;20638;-79
2022/08/29 03:37:01;;;;;;;9.47;3.07;;;;;;;14.97;100.00;99414.09;5103180;28;20219;-79
2022/08/29 03:39:30;;;;;;;5.43;3.10;;;;;;;14.79;100.00;99413.72;5103491;28;20217;-79
2022/08/29 03:41:58;;;;;;;7.13;3.00;;;;;;;14.75;100.00;99415.75;5107749;28;20195;-79
2022/08/29 03:44:26;;;;;;;4.83;2.93;;;;;;;14.98;100.00;99421.97;5114010;28;20274;-80
2022/08/29 03:46:55;;;;;;;5.17;3.13;;;;;;;14.91;100.00;99417.22;5114652;28;20301;-80
2022/08/29 03:49:24;;;;;;;5.27;2.83;;;;;;;14.91;100.00;99422.56;5116500;28;20233;-80
2022/08/29 03:51:54;;;;;;;9.83;3.30;;;;;;;14.98;100.00;99426.47;5110323;28;20195;-79
2022/08/29 03:54:23;;;;;;;6.83;3.20;;;;;;;15.09;100.00;99421.13;5106591;28;20199;-80
2022/08/29 03:56:52;;;;;;;5.50;2.83;;;;;;;14.99;100.00;99422.81;5112722;28;20183;-79
2022/08/29 03:59:21;;;;;;;8.43;3.23;;;;;;;14.93;100.00;99421.47;5110024;28;20251;-79
2022/08/29 04:01:49;;;;;;;7.67;3.27;;;;;;;15.12;100.00;99413.72;5109041;28;20229;-80
2022/08/29 04:07:05;;;;;;;5.63;2.80;;;;;;;14.97;100.00;99420.28;5111691;28;20202;-80
2022/08/29 04:09:34;;;;;;;8.53;3.00;;;;;;;15.08;100.00;99420.28;5114959;28;20198;-79
2022/08/29 04:12:02;;;;;;;8.37;3.30;;;;;;;15.12;100.00;99421.72;5110451;28;20202;-79
2022/08/29 04:14:31;;;;;;;5.17;3.10;;;;;;;15.17;100.00;99421.38;5112938;28;20195;-80
2022/08/29 04:17:03;;;;;;;6.63;3.27;;;;;;;15.04;100.00;99421.47;5113011;28;20199;-80
2022/08/29 04:19:34;;;;;;;7.23;3.23;;;;;;;15.16;100.00;99417.88;5108792;28;20222;-79
2022/08/29 04:22:05;;;;;;;7.47;3.27;;;;;;;14.84;100.00;99422.19;5112813;28;20638;-79
2022/08/29 04:24:36;;;;;;;8.37;3.47;;;;;;;14.97;100.00;99430.94;5112810;28;20205;-79
2022/08/29 04:27:04;;;;;;;9.23;3.80;;;;;;;14.91;100.00;99431.41;5112403;28;20198;-80
2022/08/29 04:29:34;;;;;;;8.27;3.40;;;;;;;14.97;100.00;99430.09;5107903;28;20191;-80
2022/08/29 04:32:03;;;;;;;8.03;3.43;;;;;;;14.83;100.00;99432.00;5111240;28;20235;-79
2022/08/29 04:34:32;;;;;;;7.07;3.53;;;;;;;14.60;100.00;99433.78;5102332;28;20195;-79
2022/08/29 04:37:02;;;;;;;10.53;3.50;;;;;;;14.69;100.00;99426.91;5103842;28;20191;-80
2022/08/29 04:39:32;;;;;;;6.37;3.60;;;;;;;14.65;100.00;99432.56;5105356;28;20187;-80
2022/08/29 04:42:01;;;;;;;7.77;3.93;;;;;;;14.56;100.00;99431.44;5111570;28;20293;-80
2022/08/29 04:44:29;;;;;;;8.83;3.40;;;;;;;14.62;100.00;99438.13;5105597;28;20217;-80
2022/08/29 04:46:57;;;;;;;9.47;3.67;;;;;;;14.68;100.00;99437.69;5112144;28;20230;-80
2022/08/29 04:49:25;;;;;;;9.37;3.67;;;;;;;14.74;100.00;99434.53;5109423;28;20183;-79
2022/08/29 04:51:54;;;;;;;8.47;3.93;;;;;;;14.64;100.00;99450.38;5105545;28;20263;-80
2022/08/29 04:54:23;;;;;;;9.40;3.97;;;;;;;14.64;100.00;99449.53;5104042;28;20209;-79
2022/08/29 04:56:56;;;;;;;7.50;3.63;;;;;;;14.65;100.00;99444.06;5114364;28;20198;-79
2022/08/29 04:59:25;;;;;;;9.33;3.93;;;;;;;14.75;100.00;99441.56;5110930;28;20187;-79
2022/08/29 05:01:54;;;;;;;7.67;3.70;;;;;;;14.69;100.00;99453.56;5053512;28;20266;-80
2022/08/29 05:04:22;;;;;;;5.77;3.33;;;;;;;14.75;100.00;99442.41;5048536;28;20205;-80
2022/08/29 05:06:51;;;;;;;8.53;3.53;;;;;;;14.91;100.00;99451.91;5046201;28;20208;-80
2022/08/29 05:09:19;;;;;;;9.80;4.07;;;;;;;14.88;100.00;99445.00;5045537;28;20197;-80
2022/08/29 05:11:48;;;;;;;8.67;3.67;;;;;;;14.81;100.00;99441.09;5050869;28;20197;-80
2022/08/29 05:14:19;;;;;;;10.90;3.50;;;;;;;14.96;100.00;99444.38;5051047;28;20211;-79
2022/08/29 05:16:48;;;;;;;10.50;4.03;;;;;;;14.98;100.00;99443.31;5047430;28;20204;-79
2022/08/29 05:19:17;;;;;;;9.60;3.73;;;;;;;14.88;100.00;99456.50;5049658;28;20280;-79
2022/08/29 05:21:45;;;;;;;7.10;3.57;;;;;;;15.14;100.00;99450.97;5051926;28;20221;-80
2022/08/29 05:24:16;;;;;;;7.80;3.60;;;;;;;15.03;100.00;99461.63;5047711;28;20205;-80
2022/08/29 05:26:45;;;;;;;9.03;4.03;;;;;;;15.33;100.00;99445.03;5082736;28;20206;-80
2022/08/29 05:29:13;;;;;;;6.93;3.73;;;;;;;15.05;100.00;99459.69;5111656;28;20202;-79
2022/08/29 05:31:44;;;;;;;7.47;3.50;;;;;;;15.11;100.00;99465.41;5111764;28;20282;-80
2022/08/29 05:34:12;;;;;;;10.00;3.70;;;;;;;15.23;100.00;99471.59;5112870;28;20195;-80
2022/08/29 05:37:01;;;;;;;10.27;3.70;;;;;;;15.30;100.00;99464.81;5114429;28;20202;-79
2022/08/29 05:39:32;;;;;;;9.70;3.70;;;;;;;15.41;100.00;99469.31;5105295;28;20255;-80
2022/08/29 05:42:00;;;;;;;10.07;3.83;;;;;;;15.24;100.00;99469.78;5107810;28;20697;-80
2022/08/29 05:44:31;;;;;;;9.13;3.37;;;;;;;15.20;100.00;99477.19;5108069;28;20183;-80
2022/08/29 05:47:05;;;;;;;9.57;3.50;;;;;;;15.01;100.00;99477.75;5111049;28;20306;-80
2022/08/29 05:49:36;;;;;;;11.47;3.80;;;;;;;15.20;100.00;99473.66;5108764;28;20226;-80
2022/08/29 05:52:05;;;;;;;8.03;3.63;;;;;;;15.30;100.00;99478.16;5106344;28;20222;-80
2022/08/29 05:54:36;;;;;;;10.23;3.63;;;;;;;15.22;100.00;99475.22;5109847;28;20198;-80
2022/08/29 05:57:07;;;;;;;10.33;3.77;;;;;;;15.28;100.00;99477.44;5107351;28;20199;-80
2022/08/29 05:59:36;;;;;;;8.20;3.80;;;;;;;15.29;100.00;99478.28;5104931;28;20194;-80
2022/08/29 06:02:08;;;;;;;8.67;3.77;;;;;;;15.28;100.00;99484.59;5106512;28;20291;-80
2022/08/29 06:04:37;;;;;;;9.63;3.97;;;;;;;15.28;100.00;99477.44;5107423;28;20218;-79
2022/08/29 06:07:06;;;;;;;11.00;4.03;;;;;;;15.10;100.00;99473.53;5113785;28;20226;-80
2022/08/29 06:09:36;;;;;;;9.13;3.90;;;;;;;15.35;100.00;99481.31;5109890;28;20269;-80
2022/08/29 06:12:04;;;;;;;8.63;3.90;;;;;;;15.37;100.00;99479.38;5109349;28;20203;-79
2022/08/29 06:14:32;;;;;;;8.53;3.63;;;;;;;15.24;100.00;99477.78;5101325;28;20206;-80
2022/08/29 06:17:01;;;;;;;11.27;3.53;;;;;;;15.50;100.00;99467.72;5109276;28;20210;-80
2022/08/29 06:19:33;;;;;;;10.23;3.30;;;;;;;15.57;100.00;99474.28;5109978;28;20238;-79
2022/08/29 06:22:03;;;;;;;9.83;3.50;;;;;;;15.60;100.00;99472.25;5113349;28;20297;-80
2022/08/29 06:24:37;;;;;;;8.67;3.60;;;;;;;15.56;100.00;99476.09;5110586;28;20311;-80
2022/08/29 06:27:07;;;;;;;10.47;3.60;;;;;;;15.65;100.00;99475.41;5103690;28;20237;-79
2022/08/29 06:29:35;;;;;;;6.60;3.33;;;;;;;15.82;100.00;99473.19;5108599;28;20191;-79
2022/08/29 06:32:11;;;;;;;12.77;3.90;;;;;;;15.93;100.00;99467.84;5110169;28;20211;-79
2022/08/29 06:34:41;;;;;;;8.43;3.57;;;;;;;15.95;100.00;99469.41;5108223;28;20273;-79
2022/08/29 06:37:11;;;;;;;9.57;3.90;;;;;;;16.25;100.00;99470.56;5108045;28;20281;-79
2022/08/29 06:39:40;;;;;;;6.63;3.63;;;;;;;16.29;100.00;99472.84;5105697;28;20219;-79
2022/08/29 06:42:08;;;;;;;8.73;3.30;;;;;;;16.19;100.00;99471.88;5113624;28;20237;-80
2022/08/29 06:44:36;;;;;;;8.30;3.60;;;;;;;16.39;100.00;99472.91;5109308;28;20195;-80
2022/08/29 06:47:11;;;;;;;6.63;3.33;;;;;;;16.50;100.00;99480.91;5108561;28;20234;-80
2022/08/29 06:49:41;;;;;;;9.23;3.50;;;;;;;16.76;100.00;99486.78;5113393;28;20551;-79
2022/08/29 06:52:10;;;;;;;9.60;3.53;;;;;;;16.86;100.00;99489.53;5109603;28;20195;-80
2022/08/29 06:54:38;;;;;;;6.30;3.30;;;;;;;16.94;100.00;99489.72;5102330;28;20289;-79
2022/08/29 06:57:11;;;;;;;11.37;3.73;;;;;;;16.85;100.00;99491.34;5108550;28;20193;-80
2022/08/29 06:59:39;;;;;;;8.70;3.23;;;;;;;16.93;100.00;99479.16;5107683;28;20198;-80
2022/08/29 07:02:09;;;;;;;13.47;3.43;;;;;;;17.05;100.00;99481.63;5103538;28;20210;-80
2022/08/29 07:04:37;;;;;;;9.37;3.50;;;;;;;17.16;100.00;99478.88;5108675;28;20195;-80
2022/08/29 07:07:07;;;;;;;9.93;3.30;;;;;;;17.30;100.00;99477.69;5106694;28;20205;-80
2022/08/29 07:09:36;;;;;;;7.60;3.50;;;;;;;17.19;100.00;99483.13;5102681;28;20246;-80
2022/08/29 07:12:07;;;;;;;8.53;3.40;;;;;;;17.66;100.00;99487.03;5109150;28;20203;-80
2022/08/29 07:14:35;;;;;;;10.07;3.70;;;;;;;17.49;100.00;99493.00;5106921;28;20295;-80
2022/08/29 07:17:04;;;;;;;9.27;3.77;;;;;;;17.60;100.00;99479.53;5070597;28;20196;-80
2022/08/29 07:19:32;;;;;;;7.20;3.30;;;;;;;17.83;100.00;99488.22;5067160;28;20199;-80
2022/08/29 07:22:02;;;;;;;6.70;3.33;;;;;;;17.79;100.00;99494.00;5072659;28;20217;-80
2022/08/29 07:24:33;;;;;;;9.17;3.57;;;;;;;18.01;100.00;99491.09;5070558;28;20195;-80
2022/08/29 07:27:01;;;;;;;8.23;3.40;;;;;;;18.18;100.00;99489.59;5066971;28;20636;-79
2022/08/29 07:29:30;;;;;;;7.13;3.43;;;;;;;18.53;100.00;99489.94;5068130;28;20283;-80
2022/08/29 07:31:58;;;;;;;10.13;3.80;;;;;;;18.35;100.00;99493.44;5034037;28;20193;-80
2022/08/29 07:34:27;;;;;;;7.97;3.30;;;;;;;18.57;100.00;99494.00;5030790;28;20200;-80
2022/08/29 07:36:55;;;;;;;7.70;3.30;;;;;;;18.81;100.00;99498.13;5051748;28;20371;-79
2022/08/29 07:39:24;;;;;;;10.50;3.90;;;;;;;18.47;100.00;99503.88;5047477;28;20295;-79
2022/08/29 07:41:54;;;;;;;11.00;3.70;;;;;;;18.50;100.00;99500.91;5052411;28;20225;-80
2022/08/29 07:44:23;;;;;;;11.90;3.93;;;;;;;18.68;100.00;99490.38;5048967;28;20201;-80
2022/08/29 07:46:55;;;;;;;9.17;3.67;;;;;;;18.79;100.00;99495.59;5047447;28;20224;-80
2022/08/29 07:49:24;;;;;;;8.90;3.07;;;;;;;19.02;100.00;99492.63;5059924;28;20202;-80
2022/08/29 07:52:07;;;;;;;6.67;3.33;;;;;;;19.05;100.00;99492.31;5073955;28;20223;-80
2022/08/29 07:54:37;;;;;;;7.30;3.10;;;;;;;19.13;100.00;99487.09;5042810;28;20196;-80
2022/08/29 07:57:07;;;;;;;6.77;3.23;;;;;;;19.31;100.00;99496.09;5046630;28;20231;-80
2022/08/29 07:59:35;;;;;;;9.53;3.83;;;;;;;19.32;100.00;99487.03;5049189;28;20272;-80
2022/08/29 08:02:04;;;;;;;6.40;3.03;;;;;;;19.49;100.00;99484.56;5046703;28;20217;-80
2022/08/29 08:04:32;;;;;;;7.20;3.10;;;;;;;19.71;100.00;99482.41;5006974;28;20232;-80
2022/08/29 08:07:02;;;;;;;6.50;3.23;;;;;;;19.84;100.00;99492.78;5008003;28;20206;-80
2022/08/29 08:09:31;;;;;;;4.50;2.80;;;;;;;20.00;100.00;99493.00;5003511;28;20221;-80
2022/08/29 08:12:00;;;;;;;9.30;2.93;;;;;;;20.17;100.00;99483.28;5020065;28;20228;-80
2022/08/29 08:14:38;;;;;;;7.77;3.53;;;;;;;20.43;100.00;99487.94;5069098;28;20196;-80
2022/08/29 08:17:08;;;;;;;9.93;3.73;;;;;;;20.07;100.00;99493.22;5008314;28;20239;-80
2022/08/29 08:19:38;;;;;;;10.13;3.43;;;;;;;20.19;100.00;99494.72;5007668;28;20222;-79
2022/08/29 08:22:07;;;;;;;7.27;3.20;;;;;;;19.94;100.00;99484.69;5015205;28;20221;-79
2022/08/29 08:24:35;;;;;;;9.70;3.00;;;;;;;20.25;100.00;99498.63;5051931;28;20197;-80
2022/08/29 08:27:03;;;;;;;6.83;2.83;;;;;;;20.26;98.94;99486.88;5047052;28;20197;-80
2022/08/29 08:29:32;;;;;;;7.13;3.53;;;;;;;20.55;96.44;99484.00;5050023;28;20204;-79
2022/08/29 08:32:03;;;;;;;11.47;3.63;;;;;;;20.56;95.43;99481.19;5048189;28;20468;-79
2022/08/29 08:34:33;;;;;;;6.57;3.10;;;;;;;20.48;94.90;99488.34;5009439;28;20728;-80
2022/08/29 08:37:07;;;;;;;11.83;3.43;;;;;;;20.81;94.92;99484.94;5109266;28;20191;-80
2022/08/29 08:39:37;;;;;;;7.37;2.90;;;;;;;20.63;94.47;99483.25;5104868;28;20188;-80
2022/08/29 08:42:13;;;;;;;8.03;3.13;;;;;;;20.63;94.04;99486.78;5106753;28;20200;-81
2022/08/29 08:45:03;;;;;;;6.20;3.20;;;;;;;20.82;94.53;99480.38;5113699;28;20210;-80
2022/08/29 08:47:38;;;;;;;6.33;2.97;;;;;;;20.83;92.39;99487.47;5112246;28;20234;-80
2022/08/29 08:50:15;;;;;;;8.60;3.33;;;;;;;20.60;93.41;99487.09;5112450;28;20191;-80
2022/08/29 08:52:49;;;;;;;9.13;2.87;;;;;;;21.08;92.05;99478.59;5108937;28;20198;-81
2022/08/29 08:55:27;;;;;;;9.48;2.90;;;;;;;21.18;90.97;99480.34;5108191;28;20195;-80
2022/08/29 08:58:02;;;;;;;6.72;2.97;;;;;;;21.06;89.66;99487.81;5110678;28;20187;-80
2022/08/29 09:00:40;;;;;;;9.67;3.37;;;;;;;20.96;89.84;99487.91;5112418;28;20278;-80
2022/08/29 09:03:29;;;;;;;7.30;3.00;;;;;;;21.36;88.70;99479.31;5106039;28;20223;-80
2022/08/29 09:06:11;;;;;;;5.82;3.33;;;;;;;21.32;88.04;99477.91;5068753;28;20251;-80
2022/08/29 09:08:50;;;;;;;8.60;3.00;;;;;;;21.34;88.56;99491.25;5062636;28;20284;-80
2022/08/29 09:11:30;;;;;;;8.00;2.92;;;;;;;21.20;88.32;99494.47;5066964;28;20283;-81
2022/08/29 09:14:07;;;;;;;12.98;3.65;;;;;;;21.27;88.64;99488.34;5064784;28;20203;-80
2022/08/29 09:16:43;;;;;;;8.23;3.13;;;;;;;21.56;86.70;99488.00;5072407;28;20276;-80
2022/08/29 09:19:14;;;;;;;7.38;3.03;;;;;;;21.45;85.78;99490.13;5064869;28;20206;-80
2022/08/29 09:21:48;;;;;;;9.80;3.15;;;;;;;21.71;84.14;99486.41;5062606;28;20192;-80
2022/08/29 09:24:29;;;;;;;8.02;2.78;;;;;;;21.77;84.31;99486.75;5086650;28;20242;-81
2022/08/29 09:26:57;;;;;;;7.57;2.78;;;;;;;22.05;80.10;99500.88;5106481;28;20677;-81
2022/08/29 09:29:30;;;;;;;8.25;3.13;;;;;;;21.97;80.19;99491.72;5103680;28;20202;-80
2022/08/29 09:32:11;;;;;;;6.50;2.90;;;;;;;22.06;80.96;99492.59;5108087;28;20234;-80
2022/08/29 09:34:45;;;;;;;9.57;3.05;;;;;;;22.20;81.11;99488.47;5110014;28;20668;-80
2022/08/29 09:37:35;;;;;;;9.02;2.95;;;;;;;22.50;79.98;99484.31;5113360;28;20195;-80
2022/08/29 09:40:09;;;;;;;6.60;3.03;;;;;;;22.70;77.64;99490.25;5110816;28;20270;-80
2022/08/29 09:42:41;;;;;;;10.70;2.97;;;;;;;22.99;76.01;99484.38;5114509;28;20194;-80
2022/08/29 09:45:18;;;;;;;5.70;2.42;;;;;;;22.81;74.77;99490.75;5106789;28;20203;-80
2022/08/29 09:47:46;;;;;;;5.35;2.78;;;;;;;23.18;73.81;99484.03;5111070;28;20241;-80
2022/08/29 09:50:24;;;;;;;9.45;3.17;;;;;;;23.06;72.42;99478.09;5105812;28;20198;-80
2022/08/29 09:52:55;;;;;;;9.52;2.95;;;;;;;23.28;70.00;99483.84;5113114;28;20194;-80
2022/08/29 09:55:30;;;;;;;9.20;2.78;;;;;;;23.83;68.36;99483.88;5110471;28;20223;-80
2022/08/29 09:58:01;;;;;;;7.50;2.53;;;;;;;23.44;65.82;99478.38;5111822;28;20387;-80
2022/08/29 10:00:35;;;;;;;4.95;2.35;;;;;;;23.37;64.56;99480.94;5103998;28;20195;-80
2022/08/29 10:03:06;;;;;;;5.10;2.10;;;;;;;23.15;64.58;99484.34;5106384;28;20278;-80
2022/08/29 10:05:43;;;;;;;4.25;2.30;;;;;;;23.11;63.93;99478.44;5104724;28;20195;-80
2022/08/29 10:08:28;;;;;;;5.60;2.30;;;;;;;23.50;60.75;99479.56;5025587;28;20197;-80
2022/08/29 10:10:59;;;;;;;5.65;2.30;;;;;;;23.18;61.16;99478.63;5028557;28;20698;-80
2022/08/29 10:13:35;;;;;;;7.22;2.47;;;;;;;24.04;60.63;99479.75;5029725;28;20507;-80
2022/08/29 10:16:13;;;;;;;8.25;2.60;;;;;;;24.17;58.60;99474.59;5026571;28;20201;-80
2022/08/29 10:18:47;;;;;;;7.57;2.65;;;;;;;24.10;60.49;99473.59;5029228;28;20198;-80
2022/08/29 10:21:27;;;;;;;8.90;2.88;;;;;;;24.49;58.97;99487.94;4991814;28;20195;-80
2022/08/29 10:24:11;;;;;;;7.90;2.80;;;;;;;24.38;58.72;99480.25;4990439;28;20306;-80
2022/08/29 10:26:56;;;;;;;5.15;2.85;;;;;;;24.37;58.47;99481.28;5030510;28;20189;-80
2022/08/29 10:29:41;;;;;;;6.05;2.42;;;;;;;25.25;54.96;99483.47;5044188;28;20185;-80
2022/08/29 10:32:20;;;;;;;5.65;2.72;;;;;;;25.47;53.45;99487.13;5045715;28;20204;-80
2022/08/29 10:35:02;;;;;;;8.55;2.95;;;;;;;25.91;51.47;99478.19;5041917;28;20201;-80
2022/08/29 10:37:46;;;;;;;5.15;2.42;;;;;;;25.55;51.53;99484.34;5041700;28;20201;-80
2022/08/29 10:40:23;;;;;;;6.03;2.42;;;;;;;25.72;53.40;99473.34;5097455;28;20270;-80
2022/08/29 10:43:07;;;;;;;6.13;3.00;;;;;;;26.01;50.95;99472.47;5108278;28;20211;-80
2022/08/29 10:45:50;;;;;;;5.50;2.53;;;;;;;26.00;50.70;99466.19;5112154;28;20190;-80
2022/08/29 10:48:27;;;;;;;8.98;2.80;;;;;;;26.05;49.64;99468.31;5113390;28;20225;-80
2022/08/29 10:51:10;;;;;;;3.92;2.20;;;;;;;26.14;49.26;99459.88;5111132;28;20198;-80
2022/08/29 10:53:42;;;;;;;4.72;2.50;;;;;;;25.78;49.29;99464.47;5114530;28;20281;-80
2022/08/29 10:56:17;;;;;;;5.45;2.58;;;;;;;25.86;49.64;99464.31;5111841;28;20195;-80
2022/08/29 10:58:59;;;;;;;4.57;2.15;;;;;;;25.97;49.34;99461.16;5105498;28;20212;-80
2022/08/29 11:01:33;;;;;;;4.93;2.55;;;;;;;25.68;50.12;99465.56;5114257;28;20190;-82
2022/08/29 11:04:16;;;;;;;6.68;2.70;;;;;;;26.08;49.69;99462.53;5117447;28;20233;-80
2022/08/29 11:06:52;;;;;;;7.30;3.08;;;;;;;26.44;48.04;99457.97;5110791;28;20195;-81
2022/08/29 11:09:28;;;;;;;9.50;2.85;;;;;;;26.28;48.02;99457.34;5111216;28;20201;-81
2022/08/29 11:12:06;;;;;;;7.22;2.13;;;;;;;26.37;46.92;99454.34;5106197;28;20198;-81
2022/08/29 11:14:39;;;;;;;5.25;2.55;;;;;;;26.56;47.34;99449.31;5109332;28;20213;-81
2022/08/29 11:17:11;;;;;;;5.72;2.33;;;;;;;26.73;46.59;99448.84;5114326;28;20286;-81
2022/08/29 11:19:52;;;;;;;7.68;2.65;;;;;;;26.98;45.17;99445.69;5111855;28;20195;-81
2022/08/29 11:22:25;;;;;;;6.78;2.78;;;;;;;27.47;44.11;99442.94;5107536;28;20195;-81
2022/08/29 11:25:02;;;;;;;7.15;2.33;;;;;;;27.47;43.18;99432.06;5048584;28;20224;-81
2022/08/29 11:27:41;;;;;;;9.68;2.70;;;;;;;27.44;43.80;99435.19;5047209;28;20311;-81
2022/08/29 11:30:16;;;;;;;10.55;2.90;;;;;;;25.67;48.95;99435.88;5048573;28;20197;-80
2022/08/29 11:32:56;;;;;;;5.95;2.70;;;;;;;27.00;46.19;99430.03;5049210;28;20275;-81
2022/08/29 11:35:36;;;;;;;6.55;2.60;;;;;;;27.65;44.01;99431.53;5052584;28;20338;-81
2022/08/29 11:38:38;;;;;;;4.38;2.58;;;;;;;27.48;42.87;99432.88;5050287;28;20347;-81
2022/08/29 11:41:22;;;;;;;5.65;2.60;;;;;;;28.43;41.63;99424.72;5050508;28;20275;-81
2022/08/29 11:44:05;;;;;;;6.18;2.30;;;;;;;27.92;40.86;99425.19;5049366;28;20270;-81
2022/08/29 11:46:37;;;;;;;5.90;2.30;;;;;;;27.97;40.31;99429.19;5045283;28;20213;-82
2022/08/29 11:49:24;;;;;;;6.22;2.35;;;;;;;27.77;42.17;99424.50;5048043;28;20231;-81
2022/08/29 11:51:55;;;;;;;4.40;2.25;;;;;;;27.82;41.79;99421.19;5050242;28;20211;-81
2022/08/29 11:54:47;;;;;;;5.72;2.50;;;;;;;27.73;42.16;99417.78;5043612;28;20193;-81